Time;durP1;ratioP1;P1;durP2;ratioP2;P2;SDS_P1;SDS_P2;PMS_P1;PMS_P2;Temp;Humidity;BMP_temperature;BMP_pressure;BME280_temperature;BME280_humidity;BME280_pressure;Samples;Min_cycle;Max_cycle;Signal;HPM_P1;HPM_P2
2020/12/16 00:01:45;;;;;;;55.45;24.07;;;;;;;0.42;100.00;100425.19;1826625;78;21482;-67
2020/12/16 00:04:13;;;;;;;43.40;21.33;;;;;;;0.40;100.00;100419.19;1826637;78;20951;-67
2020/12/16 00:06:41;;;;;;;61.00;23.85;;;;;;;0.39;100.00;100423.77;1826577;78;20987;-67
2020/12/16 00:09:08;;;;;;;51.42;22.98;;;;;;;0.39;100.00;100426.47;1826524;78;21926;-67
2020/12/16 00:11:36;;;;;;;53.38;22.90;;;;;;;0.41;100.00;100423.53;1826648;78;21077;-67
2020/12/16 00:14:04;;;;;;;58.17;22.82;;;;;;;0.41;100.00;100425.71;1826591;78;21825;-67
2020/12/16 00:16:35;;;;;;;56.85;25.12;;;;;;;0.42;100.00;100423.84;1826577;78;20928;-67
2020/12/16 00:19:02;;;;;;;53.60;22.17;;;;;;;0.44;100.00;100425.78;1826638;78;20888;-67
2020/12/16 00:21:30;;;;;;;50.65;23.07;;;;;;;0.44;100.00;100427.13;1826610;78;21922;-67
2020/12/16 00:23:58;;;;;;;52.27;22.27;;;;;;;0.43;100.00;100430.36;1826613;78;20987;-68
2020/12/16 00:26:26;;;;;;;54.15;23.47;;;;;;;0.42;100.00;100421.95;1826567;78;21184;-69
2020/12/16 00:28:54;;;;;;;51.23;23.90;;;;;;;0.38;100.00;100422.11;1826535;78;20896;-68
2020/12/16 00:31:21;;;;;;;46.28;21.25;;;;;;;0.36;100.00;100421.52;1826588;78;20919;-68
2020/12/16 00:33:49;;;;;;;53.73;23.60;;;;;;;0.33;100.00;100421.45;1826550;77;20975;-68
2020/12/16 00:36:18;;;;;;;45.95;21.40;;;;;;;0.32;100.00;100423.84;1826547;78;20983;-68
2020/12/16 00:38:46;;;;;;;52.93;23.75;;;;;;;0.32;100.00;100425.72;1826623;78;21470;-69
2020/12/16 00:41:13;;;;;;;51.40;23.65;;;;;;;0.30;100.00;100416.50;1828265;78;20951;-69
2020/12/16 00:43:41;;;;;;;50.50;22.05;;;;;;;0.29;100.00;100414.02;1829769;78;20979;-69
2020/12/16 00:46:09;;;;;;;51.70;22.07;;;;;;;0.26;100.00;100419.35;1829726;78;21836;-69
2020/12/16 00:48:36;;;;;;;51.55;22.02;;;;;;;0.26;100.00;100418.53;1829783;78;21014;-69
2020/12/16 00:51:04;;;;;;;53.68;23.57;;;;;;;0.26;100.00;100417.17;1829772;78;21240;-69
2020/12/16 00:53:33;;;;;;;55.23;23.22;;;;;;;0.24;100.00;100413.87;1829741;78;21093;-69
2020/12/16 00:56:00;;;;;;;50.03;22.58;;;;;;;0.21;100.00;100410.28;1800110;78;21591;-70
2020/12/16 00:58:29;;;;;;;62.30;26.05;;;;;;;0.18;100.00;100414.26;1829718;78;21769;-69
2020/12/16 01:00:57;;;;;;;58.02;22.73;;;;;;;0.18;100.00;100410.20;1829758;78;21011;-69
2020/12/16 01:03:25;;;;;;;57.75;23.83;;;;;;;0.18;100.00;100406.68;1829734;78;21364;-69
2020/12/16 01:05:53;;;;;;;60.58;24.63;;;;;;;0.17;100.00;100400.98;1829742;78;20931;-69
2020/12/16 01:08:22;;;;;;;54.50;21.27;;;;;;;0.17;100.00;100399.11;1829847;78;21505;-69
2020/12/16 01:10:50;;;;;;;46.28;21.55;;;;;;;0.16;100.00;100389.36;1829752;78;20983;-69
2020/12/16 01:13:17;;;;;;;49.42;20.85;;;;;;;0.17;100.00;100387.48;1829764;78;20998;-69
2020/12/16 01:15:45;;;;;;;56.92;23.57;;;;;;;0.15;100.00;100389.06;1829824;78;22339;-68
2020/12/16 01:18:13;;;;;;;43.90;22.05;;;;;;;0.14;100.00;100383.89;1829719;78;20931;-68
2020/12/16 01:20:42;;;;;;;40.30;20.23;;;;;;;0.16;100.00;100385.30;1829592;78;20899;-68
2020/12/16 01:23:29;;;;;;;45.78;21.87;;;;;;;0.16;100.00;100381.78;1829777;78;21006;-68
2020/12/16 01:25:57;;;;;;;47.10;22.50;;;;;;;0.16;100.00;100387.19;1829772;78;21026;-69
2020/12/16 01:28:25;;;;;;;44.80;21.02;;;;;;;0.15;100.00;100379.61;1829741;78;21191;-69
2020/12/16 01:30:55;;;;;;;50.88;22.35;;;;;;;0.17;100.00;100384.26;1829473;78;20971;-69
2020/12/16 01:33:24;;;;;;;51.98;23.15;;;;;;;0.16;100.00;100377.20;1829699;77;21097;-69
2020/12/16 01:35:53;;;;;;;62.40;27.90;;;;;;;0.14;100.00;100379.84;1828091;78;21478;-69
2020/12/16 01:38:21;;;;;;;53.42;25.48;;;;;;;0.14;100.00;100377.13;1829765;78;21494;-69
2020/12/16 01:40:50;;;;;;;45.75;21.55;;;;;;;0.11;100.00;100374.89;1829526;77;21189;-68
2020/12/16 01:43:17;;;;;;;60.35;23.62;;;;;;;0.07;100.00;100374.52;1829676;78;20955;-69
2020/12/16 01:45:45;;;;;;;46.10;21.62;;;;;;;0.02;100.00;100370.32;1829752;78;20927;-69
2020/12/16 01:48:14;;;;;;;49.30;22.30;;;;;;;0.00;100.00;100359.75;1829723;78;21049;-69
2020/12/16 01:50:42;;;;;;;44.50;21.90;;;;;;;-0.01;100.00;100362.71;1799807;78;21453;-69
2020/12/16 01:53:11;;;;;;;45.03;20.48;;;;;;;-0.04;100.00;100354.54;1826431;78;21200;-68
2020/12/16 01:55:41;;;;;;;48.80;21.05;;;;;;;-0.07;100.00;100350.94;1829097;78;21014;-68
2020/12/16 01:58:10;;;;;;;48.75;22.50;;;;;;;-0.07;100.00;100359.56;1828461;78;21006;-68
2020/12/16 02:00:39;;;;;;;51.35;21.45;;;;;;;-0.08;100.00;100357.91;1800398;78;21022;-68
2020/12/16 02:03:08;;;;;;;42.35;19.45;;;;;;;-0.10;100.00;100353.27;1829756;78;21002;-68
2020/12/16 02:05:46;;;;;;;54.45;21.48;;;;;;;-0.13;100.00;100351.84;1827393;78;22206;-68
2020/12/16 02:08:16;;;;;;;47.90;19.32;;;;;;;-0.15;100.00;100353.13;1774955;78;21144;-69
2020/12/16 02:10:43;;;;;;;59.75;24.23;;;;;;;-0.16;100.00;100354.17;1800097;78;21477;-69
2020/12/16 02:13:12;;;;;;;63.95;25.37;;;;;;;-0.18;100.00;100350.88;1829712;78;20929;-70
2020/12/16 02:15:41;;;;;;;96.47;30.50;;;;;;;-0.20;100.00;100352.97;1829820;78;20947;-70
2020/12/16 02:18:10;;;;;;;75.45;28.45;;;;;;;-0.23;100.00;100354.25;1829736;78;21352;-70
2020/12/16 02:20:37;;;;;;;87.37;29.48;;;;;;;-0.22;100.00;100359.12;1799612;78;21125;-69
2020/12/16 02:23:08;;;;;;;82.53;30.75;;;;;;;-0.24;100.00;100362.05;1829725;78;20916;-70
2020/12/16 02:25:38;;;;;;;69.47;28.95;;;;;;;-0.24;100.00;100364.74;1829959;78;21569;-69
2020/12/16 02:28:08;;;;;;;80.90;31.20;;;;;;;-0.22;100.00;100369.39;1829904;78;21038;-70
2020/12/16 02:30:38;;;;;;;81.45;30.35;;;;;;;-0.22;100.00;100368.04;1829865;78;21267;-70
2020/12/16 02:33:11;;;;;;;67.58;28.57;;;;;;;-0.22;100.00;100372.09;1828211;77;22134;-69
2020/12/16 02:35:40;;;;;;;78.47;31.27;;;;;;;-0.24;100.00;100370.14;1828444;78;21542;-69
2020/12/16 02:38:09;;;;;;;68.60;27.62;;;;;;;-0.27;100.00;100371.94;1829159;78;21026;-69
2020/12/16 02:40:37;;;;;;;81.95;31.87;;;;;;;-0.29;100.00;100368.64;1829463;78;20936;-69
2020/12/16 02:43:06;;;;;;;72.97;28.23;;;;;;;-0.27;100.00;100363.84;1826819;78;21184;-69
2020/12/16 02:45:34;;;;;;;76.25;29.95;;;;;;;-0.27;100.00;100357.62;1826692;78;21070;-69
2020/12/16 02:48:03;;;;;;;82.62;31.35;;;;;;;-0.27;100.00;100357.62;1826188;78;21509;-69
2020/12/16 02:50:33;;;;;;;76.30;30.45;;;;;;;-0.28;100.00;100354.63;1826768;78;21481;-69
2020/12/16 02:53:02;;;;;;;72.32;31.17;;;;;;;-0.30;100.00;100354.02;1826700;78;20942;-70
2020/12/16 02:55:31;;;;;;;91.32;33.15;;;;;;;-0.30;100.00;100356.72;1822238;78;22083;-70
2020/12/16 02:58:00;;;;;;;82.42;32.80;;;;;;;-0.31;100.00;100355.89;1826661;78;21133;-69
2020/12/16 03:00:29;;;;;;;75.22;29.45;;;;;;;-0.32;100.00;100354.25;1826636;78;20932;-69
2020/12/16 03:03:10;;;;;;;78.62;31.20;;;;;;;-0.27;100.00;100357.62;1873681;75;23293;-67
2020/12/16 03:05:43;;;;;;;;;;;;;;;-0.30;100.00;100357.55;1841930;78;21003;-67
2020/12/16 03:08:12;;;;;;;61.75;27.32;;;;;;;-0.27;100.00;100353.58;1841477;78;21140;-68
2020/12/16 03:10:46;;;;;;;78.83;29.92;;;;;;;-0.27;100.00;100357.09;1840715;78;21086;-67
2020/12/16 03:13:14;;;;;;;71.05;28.77;;;;;;;-0.27;100.00;100354.92;1841688;77;21000;-68
2020/12/16 03:15:44;;;;;;;59.00;24.02;;;;;;;-0.27;100.00;100360.32;1841639;78;20980;-68
2020/12/16 03:18:11;;;;;;;71.92;29.63;;;;;;;-0.27;100.00;100355.75;1841697;78;21944;-68
2020/12/16 03:20:39;;;;;;;59.13;25.27;;;;;;;-0.26;100.00;100361.45;1811361;78;21199;-68
2020/12/16 03:23:08;;;;;;;62.55;24.98;;;;;;;-0.25;100.00;100365.79;1841583;78;20980;-68
2020/12/16 03:25:54;;;;;;;65.28;26.20;;;;;;;-0.24;100.00;100370.66;1841693;78;21007;-68
2020/12/16 03:28:24;;;;;;;72.05;26.60;;;;;;;-0.26;100.00;100370.89;1809854;78;20984;-68
2020/12/16 03:30:53;;;;;;;71.12;27.67;;;;;;;-0.27;100.00;100363.84;1827786;78;21522;-68
2020/12/16 03:33:22;;;;;;;69.62;27.58;;;;;;;-0.26;100.00;100366.84;1833054;78;22225;-67
2020/12/16 03:36:00;;;;;;;73.47;29.70;;;;;;;-0.21;100.00;100365.64;1873746;76;22636;-67
2020/12/16 03:38:29;;;;;;;73.28;28.42;;;;;;;-0.23;100.00;100367.74;1841714;78;21471;-68
2020/12/16 03:40:58;;;;;;;62.53;25.97;;;;;;;-0.23;100.00;100361.52;1841704;78;22469;-68
2020/12/16 03:43:28;;;;;;;63.08;26.95;;;;;;;-0.22;100.00;100369.39;1841121;78;21094;-68
2020/12/16 03:45:56;;;;;;;57.85;25.02;;;;;;;-0.20;100.00;100371.86;1841641;78;20999;-68
2020/12/16 03:48:23;;;;;;;46.92;23.27;;;;;;;-0.20;100.00;100368.64;1841626;78;21526;-68
2020/12/16 03:50:51;;;;;;;47.75;21.60;;;;;;;-0.18;100.00;100370.59;1831958;76;20909;-68
2020/12/16 03:53:19;;;;;;;49.03;21.87;;;;;;;-0.18;100.00;100370.59;1815411;78;21115;-68
2020/12/16 03:56:11;;;;;;;46.53;22.58;;;;;;;-0.15;100.00;100364.74;1890177;76;22662;-68
2020/12/16 03:58:58;;;;;;;48.13;21.48;;;;;;;-0.17;100.00;100370.06;1812627;77;21463;-67
2020/12/16 04:01:40;;;;;;;51.20;22.25;;;;;;;-0.18;100.00;100369.23;1784165;77;21220;-69
2020/12/16 04:04:09;;;;;;;56.75;24.57;;;;;;;-0.19;100.00;100364.89;1860994;77;21478;-68
2020/12/16 04:06:38;;;;;;;59.67;26.42;;;;;;;-0.20;100.00;100368.64;1861058;77;20880;-68
2020/12/16 04:09:06;;;;;;;58.10;23.80;;;;;;;-0.19;100.00;100370.29;1861053;77;21481;-68
2020/12/16 04:11:38;;;;;;;54.88;23.52;;;;;;;-0.17;100.00;100375.46;1859195;77;21470;-68
2020/12/16 04:14:08;;;;;;;51.18;23.52;;;;;;;-0.14;100.00;100380.41;1858737;77;21187;-68
2020/12/16 04:16:37;;;;;;;50.88;22.87;;;;;;;-0.12;100.00;100381.01;1860991;77;20937;-68
2020/12/16 04:19:07;;;;;;;55.83;25.37;;;;;;;-0.13;100.00;100373.44;1860256;77;20928;-68
2020/12/16 04:21:36;;;;;;;53.28;23.77;;;;;;;-0.13;100.00;100381.53;1861031;77;21490;-68
2020/12/16 04:24:03;;;;;;;53.33;23.70;;;;;;;-0.13;100.00;100379.36;1861043;77;21506;-69
2020/12/16 04:26:37;;;;;;;59.15;25.50;;;;;;;-0.14;100.00;100379.88;1859298;77;21374;-69
2020/12/16 04:29:06;;;;;;;59.35;26.40;;;;;;;-0.13;100.00;100382.88;1860463;77;20888;-68
2020/12/16 04:31:35;;;;;;;61.35;27.50;;;;;;;-0.14;100.00;100387.16;1860997;77;20868;-68
2020/12/16 04:34:04;;;;;;;56.75;28.00;;;;;;;-0.13;100.00;100385.58;1845969;77;21010;-68
2020/12/16 04:36:33;;;;;;;58.65;26.93;;;;;;;-0.11;100.00;100385.36;1795372;78;21010;-68
2020/12/16 04:39:01;;;;;;;52.35;24.70;;;;;;;-0.08;100.00;100383.55;1827300;78;20991;-68
2020/12/16 04:41:29;;;;;;;52.80;25.55;;;;;;;-0.04;100.00;100384.75;1826617;78;21031;-68
2020/12/16 04:43:58;;;;;;;53.10;24.67;;;;;;;-0.04;100.00;100380.19;1824878;78;21121;-68
2020/12/16 04:46:29;;;;;;;55.38;24.67;;;;;;;-0.05;100.00;100375.01;1826540;78;20995;-67
2020/12/16 04:48:57;;;;;;;55.90;24.18;;;;;;;-0.04;100.00;100380.19;1826564;78;21507;-67
2020/12/16 04:51:26;;;;;;;45.10;21.73;;;;;;;-0.03;100.00;100383.70;1825440;78;21323;-68
2020/12/16 04:53:54;;;;;;;56.18;23.85;;;;;;;-0.01;100.00;100376.20;1826393;78;20987;-67
2020/12/16 04:56:23;;;;;;;58.60;24.98;;;;;;;0.00;100.00;100378.64;1825887;78;21549;-69
2020/12/16 04:59:05;;;;;;;59.40;26.23;;;;;;;-0.01;100.00;100372.98;1796578;78;21592;-69
2020/12/16 05:01:42;;;;;;;54.10;23.65;;;;;;;-0.02;100.00;100375.38;1826839;78;21478;-68
2020/12/16 05:04:11;;;;;;;52.85;24.37;;;;;;;-0.03;100.00;100371.56;1826468;78;22217;-68
2020/12/16 05:06:44;;;;;;;51.75;22.60;;;;;;;-0.05;100.00;100381.75;1825460;78;20981;-69
2020/12/16 05:09:13;;;;;;;51.18;25.20;;;;;;;-0.08;100.00;100378.98;1826667;78;21011;-68
2020/12/16 05:11:47;;;;;;;49.42;23.80;;;;;;;-0.07;100.00;100380.63;1826668;78;21010;-69
2020/12/16 05:14:21;;;;;;;45.33;21.07;;;;;;;-0.06;100.00;100382.28;1826730;78;20872;-67
2020/12/16 05:17:01;;;;;;;44.73;21.85;;;;;;;-0.04;100.00;100378.00;1826725;78;21412;-68
2020/12/16 05:19:44;;;;;;;46.73;22.95;;;;;;;-0.04;100.00;100384.23;1826893;78;21510;-67
2020/12/16 05:22:30;;;;;;;48.78;23.60;;;;;;;-0.05;100.00;100381.23;1826699;78;21003;-68
2020/12/16 05:24:59;;;;;;;45.50;20.65;;;;;;;-0.07;100.00;100386.55;1826775;78;20936;-68
2020/12/16 05:27:33;;;;;;;47.70;23.18;;;;;;;-0.09;100.00;100378.69;1826699;78;20939;-68
2020/12/16 05:30:06;;;;;;;51.13;22.95;;;;;;;-0.08;100.00;100384.38;1794833;78;21079;-68
2020/12/16 05:32:35;;;;;;;53.23;25.17;;;;;;;-0.08;100.00;100374.11;1826887;78;20932;-67
2020/12/16 05:35:29;;;;;;;61.45;25.68;;;;;;;-0.09;100.00;100381.91;1826599;77;20951;-69
2020/12/16 05:38:09;;;;;;;50.40;22.27;;;;;;;-0.09;100.00;100377.33;1813695;78;21493;-69
2020/12/16 05:40:39;;;;;;;56.95;23.35;;;;;;;-0.08;100.00;100378.98;1826676;78;21060;-69
2020/12/16 05:43:07;;;;;;;55.67;24.23;;;;;;;-0.09;100.00;100371.11;1826676;78;21190;-68
2020/12/16 05:45:39;;;;;;;53.00;21.87;;;;;;;-0.07;100.00;100373.88;1826581;78;21484;-70
2020/12/16 05:48:10;;;;;;;59.38;24.82;;;;;;;-0.07;100.00;100377.94;1826910;78;21474;-70
2020/12/16 05:50:51;;;;;;;57.73;23.20;;;;;;;-0.07;100.00;100375.23;1826523;78;20919;-72
2020/12/16 05:53:23;;;;;;;57.75;23.77;;;;;;;-0.06;100.00;100376.06;1822090;78;20914;-69
2020/12/16 05:55:57;;;;;;;63.52;23.65;;;;;;;-0.05;100.00;100381.75;1816097;78;21014;-70
2020/12/16 05:58:28;;;;;;;62.70;23.27;;;;;;;-0.04;100.00;100381.53;1811718;79;28751;-70
2020/12/16 06:01:00;;;;;;;52.95;21.27;;;;;;;-0.03;100.00;100383.18;1806622;79;21209;-69
2020/12/16 06:03:30;;;;;;;46.37;19.40;;;;;;;-0.02;100.00;100384.00;1793339;79;20965;-72
2020/12/16 06:06:09;;;;;;;42.25;17.92;;;;;;;-0.02;100.00;100379.95;1794638;79;21183;-70
2020/12/16 06:08:42;;;;;;;42.05;18.95;;;;;;;-0.01;100.00;100382.95;1794920;80;21243;-70
2020/12/16 06:11:12;;;;;;;50.98;21.10;;;;;;;0.00;100.00;100380.00;1797739;79;21044;-69
2020/12/16 06:13:45;;;;;;;43.33;20.00;;;;;;;-0.01;100.00;100378.91;1795872;80;20925;-70
2020/12/16 06:16:13;;;;;;;45.20;20.30;;;;;;;-0.01;100.00;100381.08;1769535;80;21566;-71
2020/12/16 06:21:20;;;;;;;54.08;21.85;;;;;;;0.05;100.00;100382.02;1873751;75;22679;-72
2020/12/16 06:23:47;;;;;;;46.35;20.35;;;;;;;0.01;100.00;100388.92;1789031;78;20865;-70
2020/12/16 06:26:17;;;;;;;41.08;18.98;;;;;;;0.01;100.00;100387.57;1841606;77;21378;-72
2020/12/16 06:28:46;;;;;;;34.43;17.15;;;;;;;0.03;100.00;100383.30;1841570;78;20959;-74
2020/12/16 06:31:31;;;;;;;38.17;18.48;;;;;;;0.02;99.87;100387.05;1841694;77;20980;-75
2020/12/16 06:34:09;;;;;;;33.58;17.12;;;;;;;0.02;99.62;100391.09;1798291;79;21082;-76
2020/12/16 06:36:41;;;;;;;35.58;17.67;;;;;;;0.03;99.54;100392.22;1808584;78;20920;-77
2020/12/16 06:39:23;;;;;;;37.45;16.45;;;;;;;0.03;99.46;100393.56;1808213;79;21363;-81
2020/12/16 06:41:53;;;;;;;;;;;;;;;0.06;99.48;100393.12;1811259;79;20951;-74
2020/12/16 06:44:21;;;;;;;31.80;15.85;;;;;;;0.08;99.39;100396.41;1808526;79;20133;-80
2020/12/16 06:46:52;;;;;;;29.65;14.75;;;;;;;0.09;99.33;100395.89;1808556;79;21011;-83
2020/12/16 06:49:30;;;;;;;35.98;18.87;;;;;;;0.10;99.28;100394.84;1808605;79;20936;-75
2020/12/16 06:52:04;;;;;;;37.58;19.23;;;;;;;0.10;99.15;100393.48;1808625;79;21359;-85
2020/12/16 06:54:44;;;;;;;39.53;19.62;;;;;;;0.10;99.24;100392.14;1807165;78;21114;-76
2020/12/16 06:57:16;;;;;;;39.65;20.95;;;;;;;0.10;99.22;100390.27;1807046;79;21071;-73
2020/12/16 06:59:56;;;;;;;34.43;18.60;;;;;;;0.10;99.07;100392.14;1806934;78;21107;-73
2020/12/16 07:02:28;;;;;;;34.33;16.55;;;;;;;0.09;99.05;100398.06;1806897;79;20987;-72
2020/12/16 07:04:57;;;;;;;34.67;17.45;;;;;;;0.09;98.98;100399.94;1807073;79;22248;-72
2020/12/16 07:07:45;;;;;;;32.13;15.98;;;;;;;0.07;98.87;100400.17;1806786;79;20984;-72
2020/12/16 07:10:37;;;;;;;27.82;14.85;;;;;;;0.09;98.83;100398.59;1806892;79;21173;-73
2020/12/16 07:13:24;;;;;;;30.77;16.48;;;;;;;0.09;98.78;100394.54;1806811;79;20999;-74
2020/12/16 07:16:10;;;;;;;31.77;16.00;;;;;;;0.08;98.64;100396.94;1806848;79;21613;-72
2020/12/16 07:18:49;;;;;;;33.40;16.60;;;;;;;0.07;98.62;100402.05;1806922;79;22258;-71
2020/12/16 07:21:22;;;;;;;32.08;16.48;;;;;;;0.08;98.58;100402.34;1811544;79;21066;-73
2020/12/16 07:24:09;;;;;;;31.60;17.20;;;;;;;0.08;98.40;100404.52;1812639;77;21363;-73
2020/12/16 07:26:46;;;;;;;36.70;18.20;;;;;;;0.10;98.41;100406.47;1811267;79;21075;-74
2020/12/16 07:29:32;;;;;;;31.73;15.93;;;;;;;0.13;98.43;100400.61;1812557;79;21074;-74
2020/12/16 07:32:06;;;;;;;30.92;15.45;;;;;;;0.16;98.28;100399.34;1792393;79;21201;-73
2020/12/16 07:34:47;;;;;;;27.07;15.15;;;;;;;0.17;97.88;100415.31;1811986;79;21534;-73
2020/12/16 07:37:18;;;;;;;51.37;19.80;;;;;;;0.20;98.02;100425.66;1811890;79;20976;-72
2020/12/16 07:39:54;;;;;;;50.88;20.77;;;;;;;0.24;97.89;100431.43;1811864;79;21141;-72
2020/12/16 07:42:27;;;;;;;39.88;17.77;;;;;;;0.28;97.85;100422.65;1812063;79;21011;-71
2020/12/16 07:44:56;;;;;;;34.88;18.10;;;;;;;0.30;97.67;100425.95;1811750;78;21371;-79
2020/12/16 07:47:25;;;;;;;40.95;18.75;;;;;;;0.33;97.51;100424.67;1811764;79;20995;-76
2020/12/16 07:49:55;;;;;;;37.53;19.05;;;;;;;0.33;97.27;100427.37;1811929;79;21007;-73
2020/12/16 07:52:31;;;;;;;35.33;18.10;;;;;;;0.33;97.14;100430.90;1811851;78;21731;-72
2020/12/16 07:54:58;;;;;;;37.75;19.60;;;;;;;0.35;97.17;100423.92;1811963;79;20924;-76
2020/12/16 07:57:34;;;;;;;30.50;16.67;;;;;;;0.37;97.11;100427.22;1811670;79;21374;-71
2020/12/16 08:00:04;;;;;;;36.48;19.17;;;;;;;0.38;96.91;100426.69;1811798;79;20929;-72
2020/12/16 08:02:44;;;;;;;32.33;15.28;;;;;;;0.39;96.71;100426.98;1811987;79;20932;-72
2020/12/16 08:05:09;;;;;;;40.88;20.45;;;;;;;0.35;96.20;100421.22;1811790;79;20940;-73
2020/12/16 08:07:36;;;;;;;33.88;17.62;;;;;;;0.33;96.15;100424.67;1752913;80;21043;-74
2020/12/16 08:10:06;;;;;;;39.95;20.40;;;;;;;0.31;96.19;100434.35;1805009;79;21897;-74
2020/12/16 08:12:41;;;;;;;42.95;21.73;;;;;;;0.33;96.28;100447.63;1811649;79;20972;-73
2020/12/16 08:15:12;;;;;;;25.30;13.90;;;;;;;0.34;96.24;100441.17;1811904;78;20930;-74
2020/12/16 08:17:43;;;;;;;22.25;11.83;;;;;;;0.36;96.23;100435.02;1811967;79;20917;-75
2020/12/16 08:20:13;;;;;;;20.97;11.83;;;;;;;0.31;95.15;100436.23;1812099;79;21501;-75
2020/12/16 08:22:44;;;;;;;20.15;11.68;;;;;;;0.31;95.15;100436.23;1811976;79;21378;-75
2020/12/16 08:25:12;;;;;;;20.57;11.12;;;;;;;0.32;95.14;100434.65;1812045;79;21003;-75
2020/12/16 08:27:47;;;;;;;17.57;9.88;;;;;;;0.30;94.71;100437.28;1798257;79;21061;-76
2020/12/16 08:30:20;;;;;;;14.45;8.48;;;;;;;0.27;94.51;100431.80;1796525;79;21099;-77
2020/12/16 08:33:16;;;;;;;13.95;7.83;;;;;;;0.24;94.01;100433.61;1793592;79;20916;-76
2020/12/16 08:36:13;;;;;;;14.18;8.45;;;;;;;0.20;93.48;100429.71;1805603;79;21392;-77
2020/12/16 08:38:43;;;;;;;21.20;11.00;;;;;;;0.17;93.75;100427.98;1805699;79;21200;-75
2020/12/16 08:41:14;;;;;;;17.92;10.13;;;;;;;0.19;94.06;100423.19;1745092;81;21095;-75
2020/12/16 08:43:42;;;;;;;16.97;9.73;;;;;;;0.21;94.16;100425.13;1734905;81;21152;-74
2020/12/16 08:46:15;;;;;;;15.13;9.55;;;;;;;0.21;94.07;100429.19;1740286;80;20973;-74
2020/12/16 08:49:00;;;;;;;15.28;8.50;;;;;;;0.21;94.16;100430.01;1751872;81;21435;-76
2020/12/16 08:51:34;;;;;;;14.20;8.18;;;;;;;0.22;94.07;100431.66;1747704;81;21520;-77
2020/12/16 08:54:07;;;;;;;14.55;8.43;;;;;;;0.22;93.89;100429.48;1746723;81;21044;-75
2020/12/16 08:56:39;;;;;;;14.58;8.65;;;;;;;0.20;93.56;100424.31;1717894;83;21663;-75
2020/12/16 08:59:15;;;;;;;14.13;8.98;;;;;;;0.17;93.46;100426.63;1751760;81;21127;-74
2020/12/16 09:01:46;;;;;;;25.32;13.20;;;;;;;0.15;93.50;100421.98;1747875;82;21425;-79
2020/12/16 09:07:14;;;;;;;17.50;9.28;;;;;;;0.16;93.62;100420.94;1867939;76;22741;-73
2020/12/16 09:09:49;;;;;;;16.60;9.83;;;;;;;0.12;93.61;100417.04;1825726;77;21002;-73
2020/12/16 09:12:20;;;;;;;18.35;10.38;;;;;;;0.10;93.48;100417.27;1822184;77;21483;-73
2020/12/16 09:14:58;;;;;;;22.87;12.03;;;;;;;0.10;93.56;100417.79;1822393;77;21458;-73
2020/12/16 09:17:27;;;;;;;20.65;10.43;;;;;;;0.09;93.77;100410.73;1826247;77;21031;-72
2020/12/16 09:19:54;;;;;;;17.42;10.00;;;;;;;0.11;93.94;100418.09;1822668;77;21540;-73
2020/12/16 09:22:28;;;;;;;17.50;11.03;;;;;;;0.11;93.89;100416.21;1818865;77;21047;-73
2020/12/16 09:24:58;;;;;;;19.40;11.12;;;;;;;0.11;93.96;100416.73;1816772;78;20923;-71
2020/12/16 09:27:26;;;;;;;18.48;11.53;;;;;;;0.11;94.00;100416.73;1823035;77;21009;-70
2020/12/16 09:29:53;;;;;;;23.77;13.58;;;;;;;0.09;93.99;100416.14;1805704;77;21045;-70
2020/12/16 09:32:26;;;;;;;23.20;13.18;;;;;;;0.08;94.00;100415.31;1819420;77;20888;-75
2020/12/16 09:34:54;;;;;;;25.90;14.05;;;;;;;0.05;94.03;100413.59;1800760;77;21193;-73
2020/12/16 09:37:33;;;;;;;33.42;18.23;;;;;;;0.04;94.17;100407.37;1793027;79;21431;-74
2020/12/16 09:40:08;;;;;;;29.95;16.73;;;;;;;0.05;94.24;100406.31;1792821;79;20956;-80
2020/12/16 09:42:37;;;;;;;39.23;20.65;;;;;;;0.04;94.31;100407.89;1789996;79;21571;-80
2020/12/16 09:45:20;;;;;;;45.92;20.35;;;;;;;0.04;94.20;100409.24;1749798;81;21072;-74
2020/12/16 09:47:49;;;;;;;37.42;20.25;;;;;;;-0.03;93.79;100407.48;1792382;79;21133;-74
2020/12/16 09:50:19;;;;;;;31.93;17.07;;;;;;;-0.07;93.71;100411.67;1795739;79;21417;-73
2020/12/16 09:52:47;;;;;;;41.35;20.68;;;;;;;-0.10;93.90;100405.38;1796089;79;21100;-75
2020/12/16 09:55:19;;;;;;;43.20;19.75;;;;;;;-0.12;94.07;100406.13;1805321;79;21112;-75
2020/12/16 09:58:02;;;;;;;34.65;19.27;;;;;;;-0.11;94.33;100402.90;1809489;79;20979;-74
2020/12/16 10:00:33;;;;;;;40.45;20.65;;;;;;;-0.10;94.50;100399.98;1786607;79;21535;-75
2020/12/16 10:03:05;;;;;;;44.55;22.10;;;;;;;-0.09;94.49;100396.75;1795704;79;21453;-73
2020/12/16 10:05:33;;;;;;;44.27;22.13;;;;;;;-0.08;94.54;100396.53;1814040;78;21137;-74
2020/12/16 10:08:02;;;;;;;40.80;23.12;;;;;;;-0.09;94.45;100388.66;1810652;79;20998;-76
2020/12/16 10:10:30;;;;;;;38.08;21.97;;;;;;;-0.11;94.40;100396.16;1813562;79;20931;-76
2020/12/16 10:12:57;;;;;;;44.58;24.85;;;;;;;-0.11;94.63;100392.93;1814921;79;20922;-77
2020/12/16 10:15:25;;;;;;;44.23;22.10;;;;;;;-0.11;94.67;100388.05;1814846;79;21385;-75
2020/12/16 10:17:53;;;;;;;45.52;24.43;;;;;;;-0.13;94.68;100392.33;1814463;79;21484;-80
2020/12/16 10:20:20;;;;;;;45.78;25.20;;;;;;;-0.15;94.77;100382.80;1814403;78;21457;-77
2020/12/16 10:22:47;;;;;;;35.43;20.55;;;;;;;-0.19;94.79;100388.36;1814278;79;20883;-77
2020/12/16 10:25:15;;;;;;;37.80;21.40;;;;;;;-0.23;94.97;100380.41;1814824;79;21014;-77
2020/12/16 10:27:42;;;;;;;38.10;21.02;;;;;;;-0.26;95.13;100385.73;1814373;79;22503;-78
2020/12/16 10:30:10;;;;;;;37.53;20.30;;;;;;;-0.28;95.36;100386.48;1806684;79;20896;-77
2020/12/16 10:32:39;;;;;;;46.85;23.32;;;;;;;-0.29;95.43;100387.52;1787482;80;20923;-76
2020/12/16 10:35:07;;;;;;;33.88;17.65;;;;;;;-0.31;95.51;100384.23;1787508;80;20955;-76
2020/12/16 10:37:35;;;;;;;31.10;18.20;;;;;;;-0.30;95.53;100379.13;1787582;80;21533;-76
2020/12/16 10:40:04;;;;;;;31.35;17.15;;;;;;;-0.30;95.57;100381.00;1787539;80;21204;-77
2020/12/16 10:42:32;;;;;;;35.95;19.10;;;;;;;-0.29;95.59;100376.73;1787376;80;21070;-79
2020/12/16 10:44:59;;;;;;;39.20;20.97;;;;;;;-0.28;95.68;100381.08;1787441;80;20912;-77
2020/12/16 10:47:27;;;;;;;33.75;18.77;;;;;;;-0.28;95.63;100374.33;1787468;79;21454;-77
2020/12/16 10:49:56;;;;;;;41.10;21.77;;;;;;;-0.29;95.66;100371.34;1787568;79;20994;-77
2020/12/16 10:52:23;;;;;;;28.70;15.55;;;;;;;-0.30;95.59;100373.73;1787441;80;21378;-77
2020/12/16 10:54:51;;;;;;;22.73;13.83;;;;;;;-0.30;95.60;100374.26;1787398;80;21485;-78
2020/12/16 10:57:20;;;;;;;21.30;13.58;;;;;;;-0.34;95.50;100370.66;1787507;79;21676;-77
2020/12/16 10:59:47;;;;;;;22.93;15.20;;;;;;;-0.40;95.40;100359.41;1787441;79;21045;-77
2020/12/16 11:02:15;;;;;;;35.48;19.12;;;;;;;-0.44;95.60;100361.44;1787554;80;21548;-78
2020/12/16 11:04:46;;;;;;;37.33;20.37;;;;;;;-0.45;95.78;100357.91;1787496;80;21892;-77
2020/12/16 11:07:13;;;;;;;35.75;20.70;;;;;;;-0.44;95.81;100360.91;1793667;78;21022;-78
2020/12/16 11:09:40;;;;;;;57.53;28.00;;;;;;;-0.45;95.92;100352.52;1772369;80;21066;-77
2020/12/16 11:12:08;;;;;;;49.03;26.10;;;;;;;-0.46;95.90;100345.47;1813707;79;21052;-77
2020/12/16 11:14:35;;;;;;;48.87;27.07;;;;;;;-0.45;96.04;100350.34;1814249;79;20982;-76
2020/12/16 11:17:05;;;;;;;34.75;18.82;;;;;;;-0.46;96.14;100348.17;1814263;79;22257;-75
2020/12/16 11:19:32;;;;;;;39.05;20.50;;;;;;;-0.43;96.32;100345.55;1784110;79;21594;-76
2020/12/16 11:22:00;;;;;;;34.15;20.40;;;;;;;-0.45;96.26;100347.12;1782111;80;21472;-76
2020/12/16 11:24:28;;;;;;;29.80;18.60;;;;;;;-0.44;96.39;100346.59;1782143;80;21142;-75
2020/12/16 11:26:56;;;;;;;27.48;16.40;;;;;;;-0.44;96.46;100341.20;1782146;80;20979;-76
2020/12/16 11:29:24;;;;;;;30.55;18.25;;;;;;;-0.43;96.47;100346.90;1803694;78;21859;-76
2020/12/16 11:31:53;;;;;;;22.32;15.18;;;;;;;-0.44;96.41;100337.16;1830255;78;21064;-77
2020/12/16 11:34:23;;;;;;;25.70;16.05;;;;;;;-0.46;96.19;100342.77;1830277;78;21084;-77